createdAt,value
2023-04-18T00:00:14.328Z,32.07
2023-04-18T00:01:14.419Z,33.88
2023-04-18T00:02:14.414Z,40.36
2023-04-18T00:03:14.554Z,37.93
2023-04-18T00:04:14.828Z,39.06
2023-04-18T00:05:14.329Z,31.17
2023-04-18T00:06:14.305Z,31.72
2023-04-18T00:07:14.309Z,32.52
2023-04-18T00:08:14.281Z,34.93
2023-04-18T00:09:14.348Z,31.16
2023-04-18T00:10:14.308Z,29.11
2023-04-18T00:11:14.295Z,29.41
2023-04-18T00:12:14.256Z,29.00
2023-04-18T00:13:14.244Z,29.86
2023-04-18T00:14:14.491Z,27.14
2023-04-18T00:15:14.255Z,28.00
2023-04-18T00:16:14.326Z,31.22
2023-04-18T00:17:14.257Z,31.37
2023-04-18T00:18:14.208Z,31.02
2023-04-18T00:19:14.287Z,33.78
2023-04-18T00:20:14.196Z,29.97
2023-04-18T00:21:14.215Z,30.78
2023-04-18T00:22:14.177Z,30.24
2023-04-18T00:23:14.260Z,29.60
2023-04-18T00:24:14.388Z,32.26
2023-04-18T00:25:14.207Z,39.37
2023-04-18T00:26:14.175Z,34.13
2023-04-18T00:27:14.142Z,31.46
2023-04-18T00:28:14.145Z,30.38
2023-04-18T00:29:14.149Z,28.53
2023-04-18T00:30:14.164Z,29.44
2023-04-18T00:31:14.229Z,31.61
2023-04-18T00:32:14.113Z,29.56
2023-04-18T00:33:14.190Z,31.54
2023-04-18T00:34:14.350Z,28.74
2023-04-18T00:35:14.092Z,28.62
2023-04-18T00:36:14.090Z,27.93
2023-04-18T00:37:14.084Z,28.69
2023-04-18T00:38:14.088Z,28.16
2023-04-18T00:39:14.144Z,26.61
2023-04-18T00:40:14.058Z,29.81
2023-04-18T00:41:14.078Z,30.02
2023-04-18T00:42:14.062Z,32.54
2023-04-18T00:43:14.062Z,31.54
2023-04-18T00:44:14.451Z,28.36
2023-04-18T00:45:14.063Z,28.02
2023-04-18T00:46:14.058Z,28.03
2023-04-18T00:47:14.022Z,28.64
2023-04-18T00:48:14.006Z,29.16
2023-04-18T00:49:14.009Z,28.51
2023-04-18T00:50:14.014Z,28.98
2023-04-18T00:51:14.011Z,31.68
2023-04-18T00:52:13.980Z,32.78
2023-04-18T00:53:13.954Z,29.99
2023-04-18T00:54:14.163Z,28.86
2023-04-18T00:55:13.953Z,31.63
2023-04-18T00:56:13.951Z,28.51
2023-04-18T00:57:13.938Z,31.20
2023-04-18T00:58:13.974Z,28.87
2023-04-18T00:59:13.977Z,30.08
2023-04-18T01:00:13.923Z,29.94
2023-04-18T01:01:13.955Z,27.60
2023-04-18T01:02:13.940Z,31.48
2023-04-18T01:03:14.049Z,29.06
2023-04-18T01:04:14.422Z,29.32
2023-04-18T01:05:13.958Z,30.06
2023-04-18T01:06:13.935Z,29.28
2023-04-18T01:07:13.868Z,31.81
2023-04-18T01:08:13.861Z,29.56
2023-04-18T01:09:13.926Z,28.91
2023-04-18T01:10:13.873Z,26.30
2023-04-18T01:11:13.833Z,28.54
2023-04-18T01:12:13.961Z,27.74
2023-04-18T01:13:13.843Z,29.54
2023-04-18T01:14:14.045Z,29.12
2023-04-18T01:15:13.851Z,26.17
2023-04-18T01:16:13.913Z,27.37
2023-04-18T01:17:13.797Z,29.64
2023-04-18T01:18:13.830Z,30.56
2023-04-18T01:19:13.953Z,31.21
2023-04-18T01:20:13.822Z,31.60
2023-04-18T01:21:13.766Z,29.15
2023-04-18T01:22:13.791Z,33.88
2023-04-18T01:23:13.788Z,30.52
2023-04-18T01:24:13.874Z,27.17
2023-04-18T01:25:13.750Z,26.82
2023-04-18T01:26:13.775Z,29.11
2023-04-18T01:27:13.802Z,28.14
2023-04-18T01:28:13.809Z,31.73
2023-04-18T01:29:13.732Z,30.64
2023-04-18T01:30:13.721Z,29.75
2023-04-18T01:31:13.785Z,28.20
2023-04-18T01:32:13.712Z,33.39
2023-04-18T01:33:13.749Z,34.27
2023-04-18T01:34:13.820Z,32.52
2023-04-18T01:35:13.703Z,31.83
2023-04-18T01:36:13.692Z,27.73
2023-04-18T01:37:13.713Z,25.00
2023-04-18T01:38:13.689Z,27.99
2023-04-18T01:39:13.709Z,27.06
2023-04-18T01:40:13.676Z,28.25
2023-04-18T01:41:13.692Z,26.79
2023-04-18T01:42:13.651Z,29.90
2023-04-18T01:43:13.677Z,25.91
2023-04-18T01:44:13.954Z,28.62
2023-04-18T01:45:13.706Z,26.49
2023-04-18T01:46:13.678Z,26.24
2023-04-18T01:47:13.657Z,26.84
2023-04-18T01:48:13.642Z,25.90
2023-04-18T01:49:13.599Z,28.11
2023-04-18T01:50:13.617Z,28.39
2023-04-18T01:51:13.627Z,31.63
2023-04-18T01:52:13.594Z,32.43
2023-04-18T01:53:13.614Z,29.72
2023-04-18T01:54:13.746Z,27.96
2023-04-18T01:55:13.594Z,28.88
2023-04-18T01:56:13.554Z,27.93
2023-04-18T01:57:13.565Z,31.06
2023-04-18T01:58:13.578Z,31.57
2023-04-18T01:59:13.571Z,31.10
2023-04-18T02:00:13.537Z,27.79
2023-04-18T02:01:13.600Z,30.31
2023-04-18T02:02:13.633Z,28.00
2023-04-18T02:03:13.655Z,29.16
2023-04-18T02:04:13.887Z,31.89
2023-04-18T02:05:13.530Z,33.08
2023-04-18T02:06:13.486Z,33.51
2023-04-18T02:07:13.515Z,29.92
2023-04-18T02:08:13.470Z,32.20
2023-04-18T02:09:13.475Z,30.93
2023-04-18T02:10:13.466Z,31.71
2023-04-18T02:11:13.457Z,32.65
2023-04-18T02:12:13.427Z,29.84
2023-04-18T02:13:13.451Z,29.60
2023-04-18T02:14:13.505Z,29.73
2023-04-18T02:15:13.505Z,32.67
2023-04-18T02:16:13.433Z,29.56
2023-04-18T02:17:13.455Z,31.99
2023-04-18T02:18:13.397Z,31.91
2023-04-18T02:19:13.403Z,32.96
2023-04-18T02:20:13.388Z,31.37
2023-04-18T02:21:13.401Z,31.53
2023-04-18T02:22:13.386Z,31.09
2023-04-18T02:23:13.363Z,31.12
2023-04-18T02:24:13.582Z,29.94
2023-04-18T02:25:13.833Z,30.02
2023-04-18T02:26:13.348Z,27.69
2023-04-18T02:27:13.343Z,27.18
2023-04-18T02:28:13.342Z,27.61
2023-04-18T02:29:13.310Z,33.87
2023-04-18T02:30:13.346Z,30.82
2023-04-18T02:31:13.323Z,29.63
2023-04-18T02:32:13.354Z,30.88
2023-04-18T02:33:13.313Z,28.72
2023-04-18T02:34:13.578Z,31.50
2023-04-18T02:35:13.287Z,29.95
2023-04-18T02:36:13.340Z,31.63
2023-04-18T02:37:13.268Z,33.34
2023-04-18T02:38:13.275Z,35.75
2023-04-18T02:39:13.279Z,33.63
2023-04-18T02:40:13.299Z,32.08
2023-04-18T02:41:13.277Z,35.11
2023-04-18T02:42:13.249Z,32.50
2023-04-18T02:43:13.249Z,35.19
2023-04-18T02:44:13.299Z,30.61
2023-04-18T02:45:13.242Z,28.25
2023-04-18T02:46:13.256Z,30.01
2023-04-18T02:47:13.199Z,30.88
2023-04-18T02:48:13.220Z,28.57
2023-04-18T02:49:13.174Z,30.63
2023-04-18T02:50:13.194Z,31.46
2023-04-18T02:51:13.173Z,29.29
2023-04-18T02:52:13.164Z,30.26
2023-04-18T02:53:13.155Z,31.29
2023-04-18T02:54:13.365Z,32.66
2023-04-18T02:55:13.152Z,31.24
2023-04-18T02:56:13.188Z,30.97
2023-04-18T02:57:13.147Z,29.42
2023-04-18T02:58:13.111Z,32.32
2023-04-18T02:59:13.111Z,31.45
2023-04-18T03:00:13.108Z,32.01
2023-04-18T03:01:13.205Z,28.61
2023-04-18T03:02:13.132Z,28.98
2023-04-18T03:03:13.233Z,27.39
2023-04-18T03:04:13.493Z,30.71
2023-04-18T03:05:13.238Z,33.04
2023-04-18T03:06:13.263Z,30.03
2023-04-18T03:07:13.223Z,32.12
2023-04-18T03:08:13.225Z,27.04
2023-04-18T03:09:13.225Z,28.55
2023-04-18T03:10:13.203Z,29.07
2023-04-18T03:11:13.304Z,28.64
2023-04-18T03:12:13.226Z,29.60
2023-04-18T03:13:13.262Z,31.16
2023-04-18T03:14:13.374Z,29.59
2023-04-18T03:15:13.248Z,29.62
2023-04-18T03:16:13.343Z,32.03
2023-04-18T03:17:13.282Z,25.39
2023-04-18T03:18:13.295Z,27.88
2023-04-18T03:19:13.282Z,29.56
2023-04-18T03:20:13.348Z,28.76
2023-04-18T03:21:13.360Z,29.62
2023-04-18T03:22:13.336Z,30.61
2023-04-18T03:23:13.448Z,26.63
2023-04-18T03:24:13.654Z,29.86
2023-04-18T03:25:13.356Z,30.49
2023-04-18T03:26:13.339Z,30.34
2023-04-18T03:27:13.373Z,28.85
2023-04-18T03:28:13.384Z,34.12
2023-04-18T03:29:13.428Z,33.11
2023-04-18T03:30:13.426Z,31.04
2023-04-18T03:31:13.550Z,33.44
2023-04-18T03:32:13.407Z,26.68
2023-04-18T03:33:13.437Z,30.28
2023-04-18T03:34:13.698Z,28.28
2023-04-18T03:35:13.536Z,27.16
2023-04-18T03:36:13.488Z,32.46
2023-04-18T03:37:13.484Z,27.73
2023-04-18T03:38:13.488Z,29.07
2023-04-18T03:39:13.554Z,28.73
2023-04-18T03:40:13.565Z,30.99
2023-04-18T03:41:13.529Z,29.09
2023-04-18T03:42:13.615Z,30.38
2023-04-18T03:43:13.619Z,28.21
2023-04-18T03:44:13.908Z,31.69
2023-04-18T03:45:13.686Z,31.58
2023-04-18T03:46:13.760Z,29.95
2023-04-18T03:47:13.730Z,32.82
2023-04-18T03:48:13.802Z,29.89
2023-04-18T03:49:13.835Z,31.53
2023-04-18T03:50:13.866Z,31.87
2023-04-18T03:51:13.917Z,29.26
2023-04-18T03:52:13.940Z,30.91
2023-04-18T03:53:13.958Z,30.90
2023-04-18T03:54:14.116Z,31.23
2023-04-18T03:55:14.011Z,34.34
2023-04-18T03:56:14.005Z,29.31
2023-04-18T03:57:14.028Z,30.46
2023-04-18T03:58:14.051Z,28.17
2023-04-18T03:59:14.052Z,31.13
2023-04-18T04:00:14.095Z,27.21
2023-04-18T04:01:14.108Z,33.12
2023-04-18T04:02:14.204Z,30.66
2023-04-18T04:03:14.269Z,29.80
2023-04-18T04:04:14.531Z,31.76
2023-04-18T04:05:14.228Z,32.16
2023-04-18T04:06:14.216Z,29.29
2023-04-18T04:07:14.220Z,28.72
2023-04-18T04:08:14.236Z,27.93
2023-04-18T04:09:14.254Z,34.14
2023-04-18T04:10:14.274Z,34.60
2023-04-18T04:11:14.271Z,31.94
2023-04-18T04:12:14.317Z,30.49
2023-04-18T04:13:14.293Z,30.11
2023-04-18T04:14:14.494Z,34.56
2023-04-18T04:15:14.314Z,29.74
2023-04-18T04:16:14.350Z,29.08
2023-04-18T04:17:14.298Z,30.99
2023-04-18T04:18:14.324Z,29.49
2023-04-18T04:19:14.335Z,28.18
2023-04-18T04:20:14.378Z,32.65
2023-04-18T04:21:14.403Z,30.31
2023-04-18T04:22:14.352Z,31.81
2023-04-18T04:23:14.408Z,31.72
2023-04-18T04:24:14.524Z,31.44
2023-04-18T04:25:14.404Z,33.05
2023-04-18T04:26:14.418Z,32.45
2023-04-18T04:27:14.444Z,31.71
2023-04-18T04:28:14.416Z,30.95
2023-04-18T04:29:14.424Z,35.54
2023-04-18T04:30:14.442Z,32.03
2023-04-18T04:31:14.472Z,28.76
2023-04-18T04:32:14.474Z,30.36
2023-04-18T04:33:14.452Z,32.04
2023-04-18T04:34:14.691Z,31.41
2023-04-18T04:35:14.997Z,32.17
2023-04-18T04:36:14.555Z,32.86
2023-04-18T04:37:14.468Z,29.93
2023-04-18T04:38:14.545Z,31.21
2023-04-18T04:39:14.511Z,30.65
2023-04-18T04:40:14.526Z,27.60
2023-04-18T04:41:14.559Z,38.10
2023-04-18T04:42:14.555Z,31.41
2023-04-18T04:43:14.583Z,32.51
2023-04-18T04:44:14.795Z,31.32
2023-04-18T04:45:14.578Z,36.51
2023-04-18T04:46:14.669Z,31.89
2023-04-18T04:47:14.654Z,37.01
2023-04-18T04:48:14.645Z,32.37
2023-04-18T04:49:14.769Z,28.82
2023-04-18T04:50:14.746Z,31.40
2023-04-18T04:51:14.651Z,29.46
2023-04-18T04:52:14.649Z,30.37
2023-04-18T04:53:14.678Z,32.90
2023-04-18T04:54:14.752Z,29.77
2023-04-18T04:55:14.721Z,29.89
2023-04-18T04:56:14.689Z,31.92
2023-04-18T04:57:14.777Z,30.60
2023-04-18T04:58:14.756Z,28.22
2023-04-18T04:59:14.746Z,26.96
2023-04-18T05:00:14.801Z,31.01
2023-04-18T05:01:14.790Z,27.85
2023-04-18T05:02:14.893Z,28.41
2023-04-18T05:03:14.930Z,29.83
2023-04-18T05:04:15.069Z,29.84
2023-04-18T05:05:14.893Z,29.85
2023-04-18T05:06:14.880Z,29.85
2023-04-18T05:07:14.988Z,27.90
2023-04-18T05:08:14.966Z,30.29
2023-04-18T05:09:14.967Z,26.97
2023-04-18T05:10:14.993Z,29.09
2023-04-18T05:11:15.151Z,28.17
2023-04-18T05:12:15.054Z,29.71
2023-04-18T05:13:15.134Z,32.22
2023-04-18T05:14:15.275Z,26.50
2023-04-18T05:15:15.092Z,30.53
2023-04-18T05:16:15.144Z,27.53
2023-04-18T05:17:15.179Z,27.99
2023-04-18T05:18:15.134Z,30.21
2023-04-18T05:19:15.217Z,28.43
2023-04-18T05:20:15.184Z,29.82
2023-04-18T05:21:15.211Z,27.57
2023-04-18T05:22:15.219Z,31.03
2023-04-18T05:23:15.402Z,30.73
2023-04-18T05:24:15.420Z,30.82
2023-04-18T05:25:15.323Z,29.12
2023-04-18T05:26:15.319Z,31.17
2023-04-18T05:27:17.665Z,28.57
2023-04-18T05:28:15.410Z,30.98
2023-04-18T05:29:15.363Z,29.03
2023-04-18T05:30:15.326Z,30.31
2023-04-18T05:31:15.377Z,29.47
2023-04-18T05:32:15.325Z,26.08
2023-04-18T05:33:15.299Z,27.01
2023-04-18T05:34:16.067Z,30.51
2023-04-18T05:35:15.316Z,33.35
2023-04-18T05:36:15.347Z,34.02
2023-04-18T05:37:15.255Z,81.08
2023-04-18T05:38:15.293Z,56.52
2023-04-18T05:39:15.251Z,47.61
2023-04-18T05:40:15.414Z,48.26
2023-04-18T05:41:15.918Z,52.10
2023-04-18T05:42:15.305Z,50.70
2023-04-18T05:43:15.410Z,54.36
2023-04-18T05:44:15.239Z,59.26
2023-04-18T05:45:15.433Z,80.63
2023-04-18T05:46:15.251Z,98.15
2023-04-18T05:47:15.215Z,105.01
2023-04-18T05:48:15.178Z,93.59
2023-04-18T05:49:15.176Z,99.71
2023-04-18T05:50:15.444Z,98.71
2023-04-18T05:51:15.302Z,107.25
2023-04-18T05:52:15.220Z,115.07
2023-04-18T05:53:15.419Z,118.88
2023-04-18T05:54:15.238Z,127.41
2023-04-18T05:55:15.157Z,128.94
2023-04-18T05:56:15.151Z,133.97
2023-04-18T05:57:15.140Z,136.18
2023-04-18T05:58:15.100Z,143.84
2023-04-18T05:59:15.131Z,145.69
2023-04-18T06:00:15.171Z,155.74
2023-04-18T06:01:15.059Z,158.10
2023-04-18T06:02:15.186Z,162.54
2023-04-18T06:03:15.271Z,163.64
2023-04-18T06:04:15.355Z,168.04
2023-04-18T06:05:15.428Z,172.85
2023-04-18T06:06:15.053Z,177.62
2023-04-18T06:07:15.082Z,185.53
2023-04-18T06:08:15.138Z,188.52
2023-04-18T06:09:15.129Z,205.88
2023-04-18T06:10:15.179Z,213.61
2023-04-18T06:11:15.228Z,213.36
2023-04-18T06:12:15.303Z,215.60
2023-04-18T06:13:15.271Z,211.56
2023-04-18T06:14:15.805Z,215.89
2023-04-18T06:15:15.296Z,219.90
2023-04-18T06:16:15.363Z,221.59
2023-04-18T06:17:15.343Z,226.06
2023-04-18T06:18:15.411Z,231.21
2023-04-18T06:19:15.392Z,237.05
2023-04-18T06:20:15.408Z,243.47
2023-04-18T06:21:15.427Z,242.89
2023-04-18T06:22:15.452Z,250.00
2023-04-18T06:23:15.501Z,248.37
2023-04-18T06:24:15.755Z,249.29
2023-04-18T06:25:15.503Z,247.65
2023-04-18T06:26:15.526Z,246.51
2023-04-18T06:27:30.204Z,247.47
2023-04-18T06:28:16.639Z,247.89
2023-04-18T06:29:15.522Z,248.76
2023-04-18T06:30:15.520Z,251.02
2023-04-18T06:31:15.544Z,256.05
2023-04-18T06:32:15.484Z,262.11
2023-04-18T06:33:15.525Z,249.86
2023-04-18T06:34:15.802Z,250.00
2023-04-18T06:35:15.512Z,246.99
2023-04-18T06:36:15.477Z,249.84
2023-04-18T06:37:15.463Z,250.00
2023-04-18T06:38:15.984Z,249.99
2023-04-18T06:39:16.454Z,250.00
2023-04-18T06:40:15.999Z,235.44
2023-04-18T06:41:15.481Z,226.67
2023-04-18T06:42:15.457Z,216.96
2023-04-18T06:43:15.544Z,203.86
2023-04-18T06:44:15.481Z,181.90
2023-04-18T06:45:15.472Z,178.39
2023-04-18T06:46:15.414Z,177.15
2023-04-18T06:47:15.381Z,179.14
2023-04-18T06:48:15.407Z,178.39
2023-04-18T06:49:15.449Z,178.10
2023-04-18T06:50:15.493Z,173.33
2023-04-18T06:51:15.395Z,174.69
2023-04-18T06:52:15.384Z,178.69
2023-04-18T06:53:15.434Z,175.53
2023-04-18T06:54:15.556Z,175.51
2023-04-18T06:55:15.402Z,182.19
2023-04-18T06:56:15.420Z,182.72
2023-04-18T06:57:15.541Z,185.76
2023-04-18T06:58:15.691Z,185.01
2023-04-18T06:59:15.933Z,187.82
2023-04-18T07:00:15.954Z,191.87
2023-04-18T07:01:16.020Z,192.63
2023-04-18T07:02:16.071Z,194.63
2023-04-18T07:03:16.088Z,196.24
2023-04-18T07:04:16.258Z,199.23
2023-04-18T07:05:17.461Z,200.29
2023-04-18T07:06:15.954Z,201.16
2023-04-18T07:07:15.924Z,203.41
2023-04-18T07:08:16.420Z,205.29
2023-04-18T07:09:16.205Z,208.43
2023-04-18T07:10:16.002Z,210.08
2023-04-18T07:11:15.992Z,211.68
2023-04-18T07:12:16.120Z,213.85
2023-04-18T07:13:16.194Z,217.89
2023-04-18T07:14:16.551Z,218.79
2023-04-18T07:15:16.416Z,224.29
2023-04-18T07:16:16.563Z,223.35
2023-04-18T07:17:16.530Z,225.54
2023-04-18T07:18:26.530Z,228.23
2023-04-18T07:19:17.442Z,228.55
2023-04-18T07:20:16.476Z,229.30
2023-04-18T07:21:16.461Z,232.87
2023-04-18T07:22:16.412Z,236.65
2023-04-18T07:23:16.474Z,241.96
2023-04-18T07:24:16.578Z,245.27
2023-04-18T07:25:16.540Z,248.34
2023-04-18T07:26:16.386Z,248.16
2023-04-18T07:27:16.381Z,247.12
2023-04-18T07:28:16.374Z,248.37
2023-04-18T07:29:16.552Z,250.00
2023-04-18T07:30:16.573Z,247.92
2023-04-18T07:31:16.728Z,247.59
2023-04-18T07:32:17.440Z,245.14
2023-04-18T07:33:16.574Z,246.16
2023-04-18T07:34:16.985Z,249.62
2023-04-18T07:35:16.654Z,245.96
2023-04-18T07:36:16.679Z,241.20
2023-04-18T07:37:16.699Z,236.50
2023-04-18T07:38:16.735Z,222.90
2023-04-18T07:39:16.991Z,211.11
2023-04-18T07:40:17.013Z,211.81
2023-04-18T07:41:16.775Z,218.89
2023-04-18T07:42:16.814Z,219.38
2023-04-18T07:43:16.865Z,218.65
2023-04-18T07:44:16.890Z,216.29
2023-04-18T07:45:16.822Z,216.56
2023-04-18T07:46:16.871Z,213.58
2023-04-18T07:47:16.832Z,210.70
2023-04-18T07:48:16.996Z,208.43
2023-04-18T07:49:17.069Z,205.50
2023-04-18T07:50:17.141Z,205.38
2023-04-18T07:51:17.507Z,203.06
2023-04-18T07:52:17.128Z,200.18
2023-04-18T07:53:17.191Z,198.32
2023-04-18T07:54:17.232Z,196.27
2023-04-18T07:55:17.131Z,194.94
2023-04-18T07:56:17.504Z,192.74
2023-04-18T07:57:17.250Z,193.84
2023-04-18T07:58:17.351Z,190.29
2023-04-18T07:59:17.493Z,190.04
2023-04-18T08:00:17.425Z,187.24
2023-04-18T08:01:17.491Z,183.90
2023-04-18T08:02:17.544Z,186.89
2023-04-18T08:03:17.526Z,185.69
2023-04-18T08:04:17.622Z,183.47
2023-04-18T08:05:17.562Z,180.59
2023-04-18T08:06:17.481Z,180.38
2023-04-18T08:07:17.503Z,180.44
2023-04-18T08:08:17.594Z,176.66
2023-04-18T08:09:17.532Z,177.12
2023-04-18T08:10:17.547Z,175.67
2023-04-18T08:11:17.583Z,175.02
2023-04-18T08:12:17.596Z,168.67
2023-04-18T08:13:17.633Z,174.47
2023-04-18T08:14:17.644Z,174.25
2023-04-18T08:15:17.644Z,167.38
2023-04-18T08:16:17.857Z,169.66
2023-04-18T08:17:17.720Z,166.16
2023-04-18T08:18:17.719Z,168.81
2023-04-18T08:19:17.764Z,169.77
2023-04-18T08:20:17.748Z,165.44
2023-04-18T08:21:17.766Z,166.51
2023-04-18T08:22:17.783Z,164.71
2023-04-18T08:23:18.528Z,166.46
2023-04-18T08:24:17.906Z,160.74
2023-04-18T08:25:17.877Z,160.49
2023-04-18T08:26:18.007Z,160.35
2023-04-18T08:27:17.880Z,162.04
2023-04-18T08:28:17.952Z,159.79
2023-04-18T08:29:18.025Z,158.51
2023-04-18T08:30:17.989Z,167.35
2023-04-18T08:31:18.051Z,161.90
2023-04-18T08:32:17.976Z,154.72
2023-04-18T08:33:18.992Z,149.37
2023-04-18T08:34:18.524Z,154.03
2023-04-18T08:35:18.018Z,149.52
2023-04-18T08:36:18.044Z,151.55
2023-04-18T08:37:18.069Z,151.78
2023-04-18T08:38:18.143Z,154.59
2023-04-18T08:39:18.102Z,148.84
2023-04-18T08:40:18.500Z,142.63
2023-04-18T08:41:18.490Z,137.92
2023-04-18T08:42:18.992Z,113.85
2023-04-18T08:43:18.196Z,98.63
2023-04-18T08:44:18.245Z,79.48
2023-04-18T08:45:18.383Z,85.83
2023-04-18T08:46:18.513Z,85.11
2023-04-18T08:47:18.237Z,84.06
2023-04-18T08:48:18.371Z,85.74
2023-04-18T08:49:18.509Z,82.52
2023-04-18T08:50:18.537Z,85.52
2023-04-18T08:51:18.989Z,84.44
2023-04-18T08:52:18.541Z,83.11
2023-04-18T08:53:18.696Z,84.46
2023-04-18T08:54:18.738Z,78.32
2023-04-18T08:55:19.508Z,75.34
2023-04-18T08:56:18.985Z,74.84
2023-04-18T08:57:18.657Z,75.80
2023-04-18T08:58:18.668Z,74.68
2023-04-18T08:59:18.744Z,73.04
2023-04-18T09:00:18.998Z,78.79
2023-04-18T09:01:18.899Z,81.17
2023-04-18T09:02:18.925Z,76.33
2023-04-18T09:03:18.942Z,72.35
2023-04-18T09:04:19.054Z,71.39
2023-04-18T09:05:19.243Z,68.29
2023-04-18T09:06:19.455Z,67.48
2023-04-18T09:07:19.184Z,64.44
2023-04-18T09:08:19.260Z,59.93
2023-04-18T09:09:19.288Z,51.44
2023-04-18T09:10:19.350Z,36.04
2023-04-18T09:11:19.429Z,25.00
2023-04-18T09:12:19.545Z,24.90
2023-04-18T09:13:19.506Z,28.48
2023-04-18T09:14:19.531Z,31.44
2023-04-18T09:15:20.039Z,26.25
2023-04-18T09:16:19.675Z,25.38
2023-04-18T09:17:19.646Z,25.16
2023-04-18T09:18:19.702Z,25.00
2023-04-18T09:19:19.764Z,26.55
2023-04-18T09:20:19.986Z,27.00
2023-04-18T09:21:20.072Z,25.20
2023-04-18T09:22:19.838Z,35.81
2023-04-18T09:23:19.916Z,38.06
2023-04-18T09:24:19.937Z,35.93
2023-04-18T09:25:19.944Z,35.96
2023-04-18T09:26:19.980Z,33.11
2023-04-18T09:27:20.138Z,29.57
2023-04-18T09:28:20.088Z,31.28
2023-04-18T09:29:20.088Z,38.28
2023-04-18T09:30:20.131Z,35.69
2023-04-18T09:31:20.231Z,29.35
2023-04-18T09:32:20.400Z,33.72
2023-04-18T09:33:20.243Z,25.00
2023-04-18T09:34:20.267Z,25.47
2023-04-18T09:35:20.498Z,29.79
2023-04-18T09:36:20.462Z,31.68
2023-04-18T09:37:20.394Z,33.92
2023-04-18T09:38:20.444Z,41.03
2023-04-18T09:39:21.197Z,20.72
2023-04-18T09:40:20.583Z,23.26
2023-04-18T09:41:21.603Z,32.46
2023-04-18T09:42:20.736Z,50.29
2023-04-18T09:43:20.751Z,49.83
2023-04-18T09:44:21.010Z,46.41
2023-04-18T09:45:20.857Z,53.83
2023-04-18T09:46:20.878Z,46.48
2023-04-18T09:47:20.947Z,41.73
2023-04-18T09:48:21.005Z,20.82
2023-04-18T09:49:21.088Z,25.29
2023-04-18T09:50:22.024Z,40.24
2023-04-18T09:51:21.545Z,7.63
2023-04-18T09:52:21.258Z,28.45
2023-04-18T09:53:21.310Z,25.90
2023-04-18T09:54:21.408Z,36.68
2023-04-18T09:55:21.425Z,54.81
2023-04-18T09:56:21.556Z,56.06
2023-04-18T09:57:21.543Z,54.29
2023-04-18T09:58:21.701Z,53.78
2023-04-18T09:59:21.657Z,51.24
2023-04-18T10:00:21.833Z,48.48
2023-04-18T10:01:21.924Z,70.31
2023-04-18T10:02:22.012Z,58.50
2023-04-18T10:03:22.034Z,54.50
2023-04-18T10:04:22.155Z,49.95
2023-04-18T10:05:22.109Z,55.50
2023-04-18T10:06:22.107Z,70.51
2023-04-18T10:07:22.126Z,57.95
2023-04-18T10:08:22.259Z,55.04
2023-04-18T10:09:22.283Z,36.96
2023-04-18T10:10:22.424Z,49.50
2023-04-18T10:11:22.402Z,53.07
2023-04-18T10:12:22.458Z,58.85
2023-04-18T10:13:22.564Z,62.62
2023-04-18T10:14:22.646Z,64.77
2023-04-18T10:15:22.672Z,54.49
2023-04-18T10:16:22.749Z,64.64
2023-04-18T10:17:22.813Z,61.95
2023-04-18T10:18:22.930Z,64.20
2023-04-18T10:19:22.847Z,60.55
2023-04-18T10:20:22.965Z,69.68
2023-04-18T10:21:23.014Z,50.00
2023-04-18T10:22:23.022Z,53.38
2023-04-18T10:23:23.064Z,52.42
2023-04-18T10:24:23.158Z,46.45
2023-04-18T10:25:23.311Z,43.71
2023-04-18T10:26:23.633Z,25.00
2023-04-18T10:27:23.332Z,44.69
2023-04-18T10:28:23.307Z,55.19
2023-04-18T10:29:23.353Z,64.94
2023-04-18T10:30:23.577Z,68.22
2023-04-18T10:31:23.638Z,59.70
2023-04-18T10:32:23.653Z,32.85
2023-04-18T10:33:30.338Z,57.64
2023-04-18T10:34:24.668Z,54.44
2023-04-18T10:35:23.582Z,59.69
2023-04-18T10:36:23.592Z,60.95
2023-04-18T10:37:23.566Z,65.59
2023-04-18T10:38:23.597Z,59.73
2023-04-18T10:39:23.573Z,68.70
2023-04-18T10:40:23.535Z,74.92
2023-04-18T10:41:23.605Z,67.63
2023-04-18T10:42:23.611Z,69.20
2023-04-18T10:43:23.692Z,79.04
2023-04-18T10:44:24.059Z,82.02
2023-04-18T10:45:23.775Z,84.40
2023-04-18T10:46:31.904Z,85.36
2023-04-18T10:47:24.961Z,85.63
2023-04-18T10:48:23.903Z,85.95
2023-04-18T10:49:26.063Z,86.92
2023-04-18T10:50:23.812Z,85.56
2023-04-18T10:51:23.842Z,86.38
2023-04-18T10:52:23.817Z,88.22
2023-04-18T10:53:23.761Z,92.91
2023-04-18T10:54:23.771Z,99.29
2023-04-18T10:55:23.776Z,104.56
2023-04-18T10:56:23.777Z,94.55
2023-04-18T10:57:23.733Z,92.67
2023-04-18T10:58:23.757Z,92.42
2023-04-18T10:59:23.754Z,87.22
2023-04-18T11:00:23.710Z,89.77
2023-04-18T11:01:23.838Z,90.42
2023-04-18T11:02:23.854Z,90.41
2023-04-18T11:03:23.784Z,89.91
2023-04-18T11:04:23.722Z,94.67
2023-04-18T11:05:23.687Z,94.40
2023-04-18T11:06:23.676Z,94.46
2023-04-18T11:07:23.717Z,97.60
2023-04-18T11:08:23.689Z,99.77
2023-04-18T11:09:23.757Z,96.21
2023-04-18T11:10:23.775Z,94.93
2023-04-18T11:11:23.641Z,95.73
2023-04-18T11:12:23.671Z,87.40
2023-04-18T11:13:23.682Z,93.92
2023-04-18T11:14:23.770Z,91.86
2023-04-18T11:15:23.661Z,102.39
2023-04-18T11:16:23.634Z,103.08
2023-04-18T11:17:23.709Z,48.40
2023-04-18T11:18:23.615Z,68.27
2023-04-18T11:19:23.739Z,67.27
2023-04-18T11:20:23.664Z,64.56
2023-04-18T11:21:23.691Z,59.04
2023-04-18T11:22:23.806Z,70.71
2023-04-18T11:23:23.882Z,69.62
2023-04-18T11:24:23.892Z,69.05
2023-04-18T11:25:23.912Z,58.39
2023-04-18T11:26:23.989Z,39.05
2023-04-18T11:27:24.104Z,23.04
2023-04-18T11:28:23.999Z,51.59
2023-04-18T11:29:24.040Z,59.09
2023-04-18T11:30:24.052Z,44.62
2023-04-18T11:31:24.219Z,45.15
2023-04-18T11:32:24.408Z,51.25
2023-04-18T11:33:24.300Z,56.87
2023-04-18T11:34:24.233Z,55.01
2023-04-18T11:35:24.265Z,48.72
2023-04-18T11:36:24.243Z,59.23
2023-04-18T11:37:24.300Z,61.18
2023-04-18T11:38:24.374Z,49.02
2023-04-18T11:39:24.513Z,36.13
2023-04-18T11:40:24.485Z,37.02
2023-04-18T11:41:24.457Z,36.46
2023-04-18T11:42:24.542Z,26.59
2023-04-18T11:43:24.454Z,30.78
2023-04-18T11:44:24.502Z,24.73
2023-04-18T11:45:24.595Z,23.19
2023-04-18T11:46:24.741Z,43.84
2023-04-18T11:47:24.850Z,49.49
2023-04-18T11:48:24.883Z,40.06
2023-04-18T11:49:24.812Z,23.62
2023-04-18T11:50:24.859Z,36.64
2023-04-18T11:51:24.834Z,28.39
2023-04-18T11:52:24.933Z,35.42
2023-04-18T11:53:24.988Z,34.10
2023-04-18T11:54:25.118Z,34.06
2023-04-18T11:55:25.103Z,48.12
2023-04-18T11:56:25.134Z,47.34
2023-04-18T11:57:25.107Z,41.27
2023-04-18T11:58:25.090Z,38.91
2023-04-18T11:59:25.100Z,34.28
2023-04-18T12:00:25.106Z,50.15
2023-04-18T12:01:25.139Z,26.32
2023-04-18T12:02:25.266Z,34.32
2023-04-18T12:03:25.476Z,40.01
2023-04-18T12:04:25.483Z,17.60
2023-04-18T12:05:25.346Z,30.76
2023-04-18T12:06:25.319Z,22.99
2023-04-18T12:07:25.571Z,27.29
2023-04-18T12:08:25.317Z,28.40
2023-04-18T12:09:25.288Z,27.48
2023-04-18T12:10:25.313Z,28.54
2023-04-18T12:11:25.323Z,32.40
2023-04-18T12:12:25.385Z,38.07
2023-04-18T12:13:25.383Z,41.20
2023-04-18T12:14:25.375Z,38.49
2023-04-18T12:15:25.443Z,48.69
2023-04-18T12:16:25.561Z,43.27
2023-04-18T12:17:25.465Z,49.51
2023-04-18T12:18:25.478Z,27.59
2023-04-18T12:19:25.489Z,16.71
2023-04-18T12:20:25.549Z,19.94
2023-04-18T12:21:25.562Z,11.24
2023-04-18T12:22:25.584Z,27.29
2023-04-18T12:23:25.643Z,45.30
2023-04-18T12:24:25.661Z,57.59
2023-04-18T12:25:27.717Z,59.81
2023-04-18T12:26:25.728Z,65.29
2023-04-18T12:27:26.076Z,70.94
2023-04-18T12:28:25.759Z,52.94
2023-04-18T12:29:25.803Z,57.27
2023-04-18T12:30:25.826Z,54.87
2023-04-18T12:31:25.896Z,54.78
2023-04-18T12:32:26.091Z,57.91
2023-04-18T12:33:25.904Z,65.84
2023-04-18T12:34:25.961Z,74.21
2023-04-18T12:35:25.959Z,79.98
2023-04-18T12:36:25.984Z,57.42
2023-04-18T12:37:26.589Z,56.75
2023-04-18T12:38:26.069Z,52.19
2023-04-18T12:39:26.070Z,59.80
2023-04-18T12:40:26.139Z,57.00
2023-04-18T12:41:26.124Z,60.83
2023-04-18T12:42:26.602Z,41.37
2023-04-18T12:43:26.222Z,55.90
2023-04-18T12:44:26.239Z,62.04
2023-04-18T12:45:26.259Z,72.70
2023-04-18T12:46:26.323Z,68.92
2023-04-18T12:47:26.319Z,79.48